首页
METAR-TAF:

METAR-TAF

机场 :

萨尔瓦多, 萨尔瓦多

萨尔瓦多奥斯卡·阿努尔福·罗梅罗-伊-加尔达梅斯主教国际机场

纬度: 13-26N, 经度: 089-03W, 海拔: 25米

当前天气观测

该预报发布于54分钟前的22:50 UTC
风速14节,风向,有时为26节阵风,在北转西北东北之间变化
温度 31°C
湿度 38%
气压 1011 hPa
能见度10公里或以上
少量云层高于7700英尺

METAR: MSLP 182250Z 01014G26KT 340V040 9999 FEW077 31/15 Q1010 A2985 NOSIG

时间: 17:44 (23:44 UTC)

预报

该预报发布于2小时和19分钟前的21:25 UTC
预报有效从19日的 00点(UTC)到 19日的 24点(UTC)
风速15节,风向,有时为28节阵风
能见度10公里或以上
1500米以下无云,无积雨云

TAF: MSLP 182125Z 1900/1924 01015G28KT CAVOK TX33/1918Z TN22/1912Z

超过4000个机场的气象观测和天气预报(METAR&TAF报告)。

可查询的气象台以黄色和红色小点在地图上表示。

将鼠标移到小点上方,可查看气象台名称。

然后点击查看天气观测和预报。

如需切换地图:点击带黑十字的绿色按钮放大地图;点击带横线的绿色按钮缩小地图;或者点击绿色箭头查看邻近地区的地图。


METAR-TAF: